Time;durP1;ratioP1;P1;durP2;ratioP2;P2;SDS_P1;SDS_P2;PMS_P1;PMS_P2;Temp;Humidity;BMP_temperature;BMP_pressure;BME280_temperature;BME280_humidity;BME280_pressure;Samples;Min_cycle;Max_cycle;Signal;HPM_P1;HPM_P2
2023/06/24 00:01:34;;;;;;;2.97;2.10;;;;;;;-146.27;54.61;81251.38;5044442;28;20310;-69
2023/06/24 00:04:00;;;;;;;5.35;2.13;;;;;;;-146.27;54.43;81231.31;5042117;28;20032;-70
2023/06/24 00:06:25;;;;;;;3.05;1.90;;;;;;;-146.27;53.82;81221.25;5040771;28;20032;-70
2023/06/24 00:08:52;;;;;;;5.20;1.77;;;;;;;-146.27;55.26;81217.25;5040693;28;20104;-70
2023/06/24 00:11:18;;;;;;;4.55;2.35;;;;;;;-146.27;54.15;81259.41;5041042;28;20040;-70
2023/06/24 00:13:44;;;;;;;5.05;2.33;;;;;;;-146.27;53.53;81255.41;5042956;28;20036;-69
2023/06/24 00:16:10;;;;;;;5.90;1.88;;;;;;;-146.27;54.20;81221.25;5049084;28;20037;-70
2023/06/24 00:18:36;;;;;;;2.58;2.13;;;;;;;-146.27;54.89;81207.19;5043740;28;20021;-70
2023/06/24 00:21:03;;;;;;;10.73;2.95;;;;;;;-146.27;53.50;81235.31;5042888;28;20720;-71
2023/06/24 00:23:34;;;;;;;10.45;4.45;;;;;;;-146.27;54.55;81295.56;5042144;28;20029;-71
2023/06/24 00:26:00;;;;;;;20.52;4.95;;;;;;;-146.27;54.01;81243.34;5045132;28;20484;-70
2023/06/24 00:28:25;;;;;;;8.73;2.80;;;;;;;-146.27;54.05;81285.53;5044488;28;20057;-70
2023/06/24 00:30:50;;;;;;;4.63;2.58;;;;;;;-146.27;54.30;81269.47;5049338;28;20036;-69
2023/06/24 00:33:20;;;;;;;7.22;2.67;;;;;;;-146.27;55.82;81275.47;5044975;28;20112;-70
2023/06/24 00:35:46;;;;;;;2.75;1.90;;;;;;;-146.27;54.96;81289.53;5040405;28;20021;-70
2023/06/24 00:38:11;;;;;;;3.50;2.08;;;;;;;-146.27;56.63;81299.59;5040454;28;20063;-70
2023/06/24 00:40:37;;;;;;;4.30;2.47;;;;;;;-146.27;56.38;81301.59;5043363;28;20555;-71
2023/06/24 00:43:04;;;;;;;5.93;2.65;;;;;;;-146.27;56.19;81309.63;5042089;28;20094;-69
2023/06/24 00:45:32;;;;;;;4.47;2.17;;;;;;;-146.27;56.82;81227.28;5048547;28;20104;-69
2023/06/24 00:48:00;;;;;;;2.90;2.20;;;;;;;-146.27;55.68;81319.66;5046069;28;20689;-70
2023/06/24 00:50:26;;;;;;;3.78;1.88;;;;;;;-146.27;56.64;81383.94;5043599;28;20056;-70
2023/06/24 00:52:52;;;;;;;3.70;2.38;;;;;;;-146.27;55.38;81307.63;5041141;28;20044;-70
2023/06/24 00:55:20;;;;;;;2.72;1.77;;;;;;;-146.27;56.65;81359.81;5047599;28;20132;-71
2023/06/24 00:57:50;;;;;;;4.65;2.00;;;;;;;-146.27;56.02;81331.72;5040408;28;20053;-70
2023/06/24 01:00:21;;;;;;;6.20;2.40;;;;;;;-146.27;56.95;81345.78;5040640;28;20026;-70
2023/06/24 01:02:48;;;;;;;3.60;2.50;;;;;;;-146.27;58.23;81369.88;5044221;28;20037;-71
2023/06/24 01:05:14;;;;;;;4.30;2.10;;;;;;;-146.27;58.44;81359.81;5045186;28;21403;-70
2023/06/24 01:07:41;;;;;;;3.95;2.20;;;;;;;-146.27;57.91;81379.91;5040878;28;20033;-69
2023/06/24 01:10:08;;;;;;;2.95;1.52;;;;;;;-146.27;57.87;81363.84;5044400;28;20057;-70
2023/06/24 01:12:38;;;;;;;7.70;2.20;;;;;;;-146.27;57.42;81381.91;5043553;28;20021;-71
2023/06/24 01:15:06;;;;;;;6.07;2.75;;;;;;;-146.27;57.77;81379.91;5041327;28;20039;-70
2023/06/24 01:18:09;;;;;;;10.05;2.50;;;;;;;-146.27;59.57;81391.97;5022449;28;20032;-70
2023/06/24 01:20:47;;;;;;;3.85;1.98;;;;;;;-146.27;59.39;81440.16;5041473;28;20033;-69
2023/06/24 01:23:35;;;;;;;4.00;2.15;;;;;;;-146.27;59.39;81424.09;5041426;28;20049;-69
2023/06/24 01:26:30;;;;;;;4.57;2.67;;;;;;;-146.27;60.66;81416.06;5041748;28;20036;-69
2023/06/24 01:29:02;;;;;;;3.05;2.30;;;;;;;-146.27;60.53;81395.97;5050237;28;20032;-69
2023/06/24 01:31:37;;;;;;;6.32;2.22;;;;;;;-146.27;60.44;81424.09;5051854;28;20025;-69
2023/06/24 01:34:15;;;;;;;3.00;2.00;;;;;;;-146.27;61.98;81426.09;5053227;28;20029;-70
2023/06/24 01:36:46;;;;;;;6.05;2.17;;;;;;;-146.27;62.60;81402.00;5049825;28;20119;-69
2023/06/24 01:39:13;;;;;;;3.55;2.38;;;;;;;-146.27;62.66;81456.22;5046839;28;20024;-69
2023/06/24 01:41:45;;;;;;;4.40;1.85;;;;;;;-146.27;63.50;81426.09;5048876;28;20039;-70
2023/06/24 01:44:13;;;;;;;5.72;2.42;;;;;;;-146.27;63.87;81456.22;5045298;28;20032;-70
2023/06/24 01:46:41;;;;;;;3.67;2.50;;;;;;;-146.27;64.79;81434.13;5042329;28;20022;-69
2023/06/24 01:49:11;;;;;;;10.07;3.60;;;;;;;-146.27;64.13;81492.38;5050693;28;20036;-69
2023/06/24 01:51:38;;;;;;;2.88;2.05;;;;;;;-146.27;65.72;81516.47;5048200;28;20028;-69
2023/06/24 01:54:06;;;;;;;5.68;2.15;;;;;;;-146.27;65.45;81476.31;5042072;28;20040;-70
2023/06/24 01:56:34;;;;;;;5.15;2.65;;;;;;;-146.27;67.33;81494.38;5043835;28;20389;-69
2023/06/24 01:59:03;;;;;;;2.80;2.17;;;;;;;-146.27;67.53;81518.50;5024532;28;20071;-70
2023/06/24 02:01:31;;;;;;;5.90;2.53;;;;;;;-146.27;67.94;81500.41;5047254;28;20388;-69
2023/06/24 02:03:58;;;;;;;5.25;2.42;;;;;;;-146.27;68.96;81476.31;5048787;28;20029;-70
2023/06/24 02:06:26;;;;;;;9.30;2.50;;;;;;;-146.27;68.64;81512.47;5048995;28;20037;-69
2023/06/24 02:08:53;;;;;;;6.50;2.30;;;;;;;-146.27;68.70;81528.53;5051151;28;20033;-69
2023/06/24 02:11:22;;;;;;;6.43;2.45;;;;;;;-146.27;68.85;81530.53;5047025;28;20500;-69
2023/06/24 02:13:48;;;;;;;4.72;2.35;;;;;;;-146.27;68.37;81508.44;5051298;28;20028;-69
2023/06/24 02:16:16;;;;;;;2.97;2.20;;;;;;;-146.27;69.24;81502.41;5050019;28;20124;-69
2023/06/24 02:18:43;;;;;;;5.15;3.00;;;;;;;-146.27;69.89;81530.53;5048325;28;20033;-70
2023/06/24 02:21:09;;;;;;;8.35;2.78;;;;;;;-146.27;69.63;81516.47;5046506;28;20063;-70
2023/06/24 02:23:38;;;;;;;5.88;2.60;;;;;;;-146.27;69.54;81530.53;5048191;28;20090;-69
2023/06/24 02:26:06;;;;;;;6.80;2.70;;;;;;;-146.27;71.06;81526.53;5047974;28;20078;-69
2023/06/24 02:28:33;;;;;;;2.70;2.20;;;;;;;-146.27;71.64;81560.66;5042279;28;20072;-70
2023/06/24 02:30:59;;;;;;;3.25;2.28;;;;;;;-146.27;72.44;81554.63;5025280;28;20036;-70
2023/06/24 02:33:26;;;;;;;5.80;3.40;;;;;;;-146.27;72.76;81590.78;5049502;28;20028;-69
2023/06/24 02:35:52;;;;;;;5.82;2.67;;;;;;;-146.27;73.33;81614.88;5050935;28;20017;-69
2023/06/24 02:38:17;;;;;;;12.73;3.38;;;;;;;-146.27;73.68;81622.91;5049378;28;20513;-69
2023/06/24 02:40:45;;;;;;;7.80;2.72;;;;;;;-146.27;73.89;81624.94;5044214;28;20178;-69
2023/06/24 02:43:10;;;;;;;3.17;2.10;;;;;;;-146.27;75.66;81645.00;5041760;28;20025;-70
2023/06/24 02:45:36;;;;;;;4.90;2.35;;;;;;;-146.27;74.93;81649.03;5044982;28;20089;-70
2023/06/24 02:48:03;;;;;;;8.93;2.83;;;;;;;-146.27;75.25;81693.22;5051948;28;20056;-69
2023/06/24 02:50:28;;;;;;;4.10;2.38;;;;;;;-146.27;75.37;81697.22;5055716;28;20033;-69
2023/06/24 02:52:54;;;;;;;5.70;3.13;;;;;;;-146.27;75.61;81685.19;5047139;28;20025;-69
2023/06/24 02:55:21;;;;;;;5.70;2.58;;;;;;;-146.27;76.29;81719.31;5045891;28;20052;-72
2023/06/24 02:57:47;;;;;;;4.43;2.40;;;;;;;-146.27;76.14;81701.25;5049409;28;20538;-69
2023/06/24 03:00:14;;;;;;;8.63;3.22;;;;;;;-146.27;76.41;81729.38;5049690;28;20029;-69
2023/06/24 03:02:42;;;;;;;4.57;3.20;;;;;;;-146.27;76.81;81741.41;5031659;28;20032;-70
2023/06/24 03:05:09;;;;;;;5.97;2.53;;;;;;;-146.27;77.47;81777.56;5049364;28;20025;-69
2023/06/24 03:07:36;;;;;;;8.52;3.03;;;;;;;-146.27;77.52;81769.53;5046187;28;20035;-70
2023/06/24 03:10:02;;;;;;;8.88;2.88;;;;;;;-146.27;78.24;81741.41;5049947;28;20025;-70
2023/06/24 03:12:28;;;;;;;4.85;2.83;;;;;;;-146.27;77.65;81753.47;5042262;28;20025;-70
2023/06/24 03:14:54;;;;;;;10.38;2.78;;;;;;;-146.27;77.81;81745.44;5049479;28;20031;-70
2023/06/24 03:17:19;;;;;;;6.10;2.63;;;;;;;-146.27;77.64;81665.09;5049116;28;20021;-69
2023/06/24 03:19:45;;;;;;;7.32;2.65;;;;;;;-146.27;78.18;81705.28;5046749;28;20055;-69
2023/06/24 03:22:10;;;;;;;6.60;3.08;;;;;;;-146.27;77.18;81681.16;5049734;28;20140;-69
2023/06/24 03:24:36;;;;;;;5.30;2.95;;;;;;;-146.27;77.07;81685.19;5048440;28;20472;-69
2023/06/24 03:27:01;;;;;;;7.30;3.25;;;;;;;-146.27;77.10;81683.19;5047719;28;20682;-71
2023/06/24 03:29:26;;;;;;;6.18;3.28;;;;;;;-146.27;77.21;81651.03;5049085;28;20036;-69
2023/06/24 03:31:52;;;;;;;8.05;3.50;;;;;;;-146.27;76.57;81649.03;5048030;28;20024;-69
2023/06/24 03:34:17;;;;;;;6.07;3.53;;;;;;;-146.27;77.29;81685.19;5044086;28;20545;-69
2023/06/24 03:36:43;;;;;;;5.05;3.47;;;;;;;-146.27;76.91;81639.00;5041863;28;20029;-69
2023/06/24 03:39:09;;;;;;;6.20;3.35;;;;;;;-146.27;77.56;81651.03;5045555;28;20369;-69
2023/06/24 03:41:34;;;;;;;6.90;3.75;;;;;;;-146.27;77.33;81655.06;5045315;28;20029;-69
2023/06/24 03:44:00;;;;;;;9.18;4.18;;;;;;;-146.27;76.18;81669.13;5046095;28;20044;-69
2023/06/24 03:46:26;;;;;;;6.22;3.97;;;;;;;-146.27;77.17;81649.03;5047685;28;20044;-69
2023/06/24 03:48:51;;;;;;;5.45;3.63;;;;;;;-146.27;77.33;81616.91;5047127;28;20032;-70
2023/06/24 03:51:17;;;;;;;13.73;4.55;;;;;;;-146.27;76.43;81657.06;5048312;28;20032;-69
2023/06/24 03:53:42;;;;;;;8.77;4.05;;;;;;;-146.27;77.72;81693.22;5046792;28;20025;-69
2023/06/24 03:56:08;;;;;;;9.05;3.80;;;;;;;-146.27;77.53;81649.03;5030848;28;20495;-71
2023/06/24 03:58:33;;;;;;;7.35;4.07;;;;;;;-146.27;78.23;81632.97;5059872;28;20051;-69
2023/06/24 04:01:02;;;;;;;5.80;3.95;;;;;;;-146.27;78.21;81643.00;5068494;28;20333;-70
2023/06/24 04:03:31;;;;;;;5.22;3.70;;;;;;;-146.27;78.34;81657.06;5052294;28;20151;-69
2023/06/24 04:05:56;;;;;;;7.32;3.78;;;;;;;-146.27;78.51;81622.91;5045279;28;20025;-70
2023/06/24 04:08:23;;;;;;;12.38;4.07;;;;;;;-146.27;79.17;81675.16;5046111;28;20025;-70
2023/06/24 04:10:49;;;;;;;4.47;3.60;;;;;;;-146.27;79.21;81681.16;5049975;28;20150;-70
2023/06/24 04:13:14;;;;;;;5.88;3.80;;;;;;;-146.27;79.42;81661.09;5043401;28;20114;-69
2023/06/24 04:15:39;;;;;;;10.13;4.97;;;;;;;-146.27;79.20;81592.78;5039986;28;20032;-69
2023/06/24 04:18:05;;;;;;;9.95;3.85;;;;;;;-146.27;79.14;81663.09;5029779;28;20040;-69
2023/06/24 04:20:30;;;;;;;8.02;4.60;;;;;;;-146.27;78.62;81639.00;5041932;28;20112;-70
2023/06/24 04:22:56;;;;;;;7.28;4.25;;;;;;;-146.27;78.88;81604.84;5047316;28;20035;-71
2023/06/24 04:25:21;;;;;;;8.98;4.00;;;;;;;-146.27;78.80;81568.69;5049410;28;20028;-70
2023/06/24 04:27:46;;;;;;;7.18;3.60;;;;;;;-146.27;78.54;81604.84;5049158;28;20400;-70
2023/06/24 04:30:12;;;;;;;6.50;3.90;;;;;;;-146.27;78.34;81616.91;5049286;28;20419;-71
2023/06/24 04:32:37;;;;;;;7.78;4.60;;;;;;;-146.27;78.41;81570.69;5047177;28;20033;-70
2023/06/24 04:35:04;;;;;;;7.80;3.78;;;;;;;-146.27;78.28;81572.72;5047841;28;20027;-72
2023/06/24 04:37:29;;;;;;;7.90;4.28;;;;;;;-146.27;78.22;81512.47;5047967;28;20146;-73
2023/06/24 04:39:55;;;;;;;8.75;4.13;;;;;;;-146.27;77.83;81548.59;5043107;28;20445;-72
2023/06/24 04:42:22;;;;;;;6.57;3.85;;;;;;;-146.27;76.86;81552.63;5041389;28;20033;-73
2023/06/24 04:44:51;;;;;;;9.90;4.82;;;;;;;-146.27;77.37;81556.66;5042099;28;20060;-73
2023/06/24 04:47:17;;;;;;;6.95;4.20;;;;;;;-146.27;77.92;81552.63;5037430;28;20368;-72
2023/06/24 04:49:43;;;;;;;6.32;4.25;;;;;;;-146.27;76.99;81540.56;5041904;28;20403;-72
2023/06/24 04:52:10;;;;;;;6.68;4.10;;;;;;;-146.27;77.24;81520.50;5041029;28;20024;-73
2023/06/24 04:54:35;;;;;;;12.75;4.40;;;;;;;-146.27;77.40;81524.50;5038494;28;20162;-72
2023/06/24 04:57:01;;;;;;;8.52;4.55;;;;;;;-146.27;78.05;81480.31;5038461;28;20056;-73
2023/06/24 04:59:26;;;;;;;7.20;4.00;;;;;;;-146.27;77.42;81518.50;5038732;28;20045;-73
2023/06/24 05:01:51;;;;;;;6.30;4.15;;;;;;;-146.27;77.41;81496.41;5045461;28;20268;-73
2023/06/24 05:04:17;;;;;;;7.38;4.38;;;;;;;-146.27;77.53;81500.41;5043129;28;20037;-72
2023/06/24 05:06:42;;;;;;;8.70;4.50;;;;;;;-146.27;78.01;81506.44;5044250;28;20037;-73
2023/06/24 05:09:10;;;;;;;8.52;4.93;;;;;;;-146.27;78.19;81534.56;5042884;28;20393;-73
2023/06/24 05:11:35;;;;;;;9.68;4.90;;;;;;;-146.27;77.82;81502.41;5037223;28;20033;-73
2023/06/24 05:14:01;;;;;;;6.80;3.95;;;;;;;-146.27;78.03;81478.31;5043763;28;20066;-73
2023/06/24 05:16:26;;;;;;;10.82;5.30;;;;;;;-146.27;77.94;81484.34;5043154;28;20295;-72
2023/06/24 05:18:51;;;;;;;8.40;4.63;;;;;;;-146.27;77.85;81478.31;5051527;28;20021;-73
2023/06/24 05:21:17;;;;;;;7.90;4.88;;;;;;;-146.27;77.92;81444.19;5051282;28;20044;-73
2023/06/24 05:23:42;;;;;;;8.75;4.43;;;;;;;-146.27;77.86;81426.09;5052086;28;20105;-73
2023/06/24 05:26:08;;;;;;;10.35;4.90;;;;;;;-146.27;77.92;81438.16;5053365;28;20166;-72
2023/06/24 05:28:33;;;;;;;8.65;4.82;;;;;;;-146.27;78.11;81448.19;5052880;28;20036;-72
2023/06/24 05:30:59;;;;;;;7.85;4.63;;;;;;;-146.27;78.00;81410.03;5047902;28;20024;-73
2023/06/24 05:33:24;;;;;;;10.18;4.95;;;;;;;-146.27;77.86;81436.16;5048327;28;20446;-72
2023/06/24 05:35:50;;;;;;;8.57;4.93;;;;;;;-146.27;78.46;81496.41;5045121;28;20025;-72
2023/06/24 05:38:16;;;;;;;9.85;5.10;;;;;;;-146.27;78.88;81464.25;5045674;28;20469;-72
2023/06/24 05:40:41;;;;;;;6.43;4.85;;;;;;;-146.27;78.33;81440.16;5043583;28;20036;-72
2023/06/24 05:43:06;;;;;;;12.65;5.60;;;;;;;-146.27;78.09;81379.91;5044391;28;20043;-73
2023/06/24 05:45:32;;;;;;;9.52;5.22;;;;;;;-146.27;77.81;81363.84;5044517;28;20028;-72
2023/06/24 05:47:57;;;;;;;8.30;4.88;;;;;;;-146.27;77.76;81383.94;5038606;28;20032;-72
2023/06/24 05:50:22;;;;;;;9.95;4.95;;;;;;;-146.27;77.94;81400.00;5058402;28;21523;-72
2023/06/24 05:52:48;;;;;;;9.10;5.65;;;;;;;-146.27;77.94;81343.75;5041541;28;20028;-72
2023/06/24 05:55:16;;;;;;;9.48;5.13;;;;;;;-146.27;77.75;81355.81;5031460;28;20116;-73
2023/06/24 05:57:41;;;;;;;8.90;5.22;;;;;;;-146.27;77.85;81317.66;5032031;28;20052;-73
2023/06/24 06:00:07;;;;;;;9.70;5.07;;;;;;;-146.27;78.31;81367.88;5045321;28;20096;-72
2023/06/24 06:02:32;;;;;;;13.20;5.60;;;;;;;-146.27;78.21;81367.88;5048796;28;20033;-72
2023/06/24 06:04:58;;;;;;;10.27;5.70;;;;;;;-146.27;78.29;81339.75;5050689;28;20315;-74
2023/06/24 06:07:23;;;;;;;10.75;4.93;;;;;;;-146.27;78.11;81329.72;5051284;28;20063;-71
2023/06/24 06:09:49;;;;;;;10.65;5.55;;;;;;;-146.27;78.19;81351.78;5048544;28;20025;-71
2023/06/24 06:12:14;;;;;;;13.15;6.35;;;;;;;-146.27;78.27;81347.78;5037973;28;20392;-72
2023/06/24 06:14:39;;;;;;;11.95;6.05;;;;;;;-146.27;78.59;81323.69;5050429;28;20508;-72
2023/06/24 06:17:15;;;;;;;9.35;5.70;;;;;;;-146.27;78.82;81259.41;5069495;28;20053;-74
2023/06/24 06:19:41;;;;;;;13.57;6.00;;;;;;;-146.27;78.09;81255.41;5050341;28;20455;-72
2023/06/24 06:22:07;;;;;;;9.95;6.85;;;;;;;-146.27;77.78;81227.28;5049768;28;20096;-72
2023/06/24 06:24:32;;;;;;;10.27;5.97;;;;;;;-146.27;77.97;81241.34;5049558;28;20401;-72
2023/06/24 06:26:58;;;;;;;7.97;5.28;;;;;;;-146.27;77.74;81191.13;5051981;28;20036;-72
2023/06/24 06:29:23;;;;;;;9.30;5.82;;;;;;;-146.27;77.37;81175.06;5049515;28;20167;-73
2023/06/24 06:31:49;;;;;;;7.13;5.32;;;;;;;-146.27;76.88;81197.16;5050387;28;20392;-71
2023/06/24 06:34:14;;;;;;;12.95;6.10;;;;;;;-146.27;77.26;81167.03;5047353;28;20400;-71
2023/06/24 06:36:39;;;;;;;13.00;5.50;;;;;;;-146.27;77.18;81110.81;5050347;28;20032;-72
2023/06/24 06:39:05;;;;;;;9.95;5.05;;;;;;;-146.27;76.77;81132.91;5047634;28;20028;-72
2023/06/24 06:41:30;;;;;;;9.80;5.50;;;;;;;-146.27;76.16;81116.84;5051701;28;20032;-72
2023/06/24 06:43:56;;;;;;;10.10;5.30;;;;;;;-146.27;76.41;81126.88;5046000;28;20031;-73
2023/06/24 06:46:21;;;;;;;9.70;5.20;;;;;;;-146.27;76.75;81144.94;5047578;28;20029;-72
2023/06/24 06:48:46;;;;;;;9.45;5.80;;;;;;;-146.27;76.71;81094.75;5050559;28;20064;-72
2023/06/24 06:51:12;;;;;;;13.05;5.78;;;;;;;-146.27;75.81;81058.59;5045449;28;20025;-73
2023/06/24 06:53:38;;;;;;;12.85;6.18;;;;;;;-146.27;75.56;81070.66;5050657;28;20048;-73
2023/06/24 06:56:03;;;;;;;9.65;5.57;;;;;;;-146.27;75.65;81070.66;5038829;28;20036;-72
2023/06/24 06:58:29;;;;;;;8.90;5.68;;;;;;;-146.27;75.78;81060.59;5018977;28;20049;-73
2023/06/24 07:00:54;;;;;;;12.65;5.57;;;;;;;-146.27;76.03;80994.34;5051394;28;20071;-73
2023/06/24 07:03:19;;;;;;;11.10;5.57;;;;;;;-146.27;75.43;81000.34;5050810;28;20021;-72
2023/06/24 07:05:46;;;;;;;9.02;5.18;;;;;;;-146.27;75.33;80972.25;5050382;28;20552;-73
2023/06/24 07:08:11;;;;;;;8.00;5.55;;;;;;;-146.27;75.08;80956.19;5049329;28;20124;-73
2023/06/24 07:10:37;;;;;;;9.52;5.70;;;;;;;-146.27;74.57;80960.19;5048491;28;20553;-71
2023/06/24 07:13:02;;;;;;;8.57;5.53;;;;;;;-146.27;74.60;80934.09;5047920;28;20068;-74
2023/06/24 07:15:28;;;;;;;9.15;6.32;;;;;;;-146.27;74.74;81002.38;5046117;28;20082;-71
2023/06/24 07:17:53;;;;;;;11.20;6.00;;;;;;;-146.27;74.64;80930.06;5044818;28;20021;-71
2023/06/24 07:20:20;;;;;;;12.07;5.55;;;;;;;-146.27;73.92;80910.00;5047064;28;20092;-73
2023/06/24 07:22:45;;;;;;;10.85;5.90;;;;;;;-146.27;74.44;80887.91;5046010;28;20361;-73
2023/06/24 07:25:11;;;;;;;11.95;6.03;;;;;;;-146.27;74.08;80853.78;5048167;28;20075;-73
2023/06/24 07:27:37;;;;;;;10.82;5.80;;;;;;;-146.27;73.83;80821.63;5026348;28;20028;-73
2023/06/24 07:30:03;;;;;;;12.15;5.18;;;;;;;-146.27;74.16;80765.41;5046933;28;20429;-73
2023/06/24 07:32:29;;;;;;;12.27;6.63;;;;;;;-146.27;73.04;80703.16;5048020;28;20096;-73
2023/06/24 07:34:54;;;;;;;15.18;6.25;;;;;;;-146.27;72.96;80799.56;5049904;28;20033;-73
2023/06/24 07:37:19;;;;;;;8.40;5.10;;;;;;;-146.27;73.75;80775.47;5050713;28;20036;-73
2023/06/24 07:39:45;;;;;;;10.05;6.05;;;;;;;-146.27;72.53;80747.34;5050348;28;20021;-73
2023/06/24 07:42:10;;;;;;;7.97;5.55;;;;;;;-146.27;72.53;80701.16;5043856;28;20029;-73
2023/06/24 07:44:38;;;;;;;11.85;6.18;;;;;;;-146.27;72.60;80657.00;5048698;28;20104;-73
2023/06/24 07:47:03;;;;;;;8.77;6.10;;;;;;;-146.27;72.49;80650.97;5043357;28;20070;-68
2023/06/24 07:49:29;;;;;;;10.90;6.03;;;;;;;-146.27;72.33;80630.88;5049950;28;20033;-68
2023/06/24 07:51:54;;;;;;;13.98;6.70;;;;;;;-146.27;72.27;80657.00;5048386;28;20027;-72
2023/06/24 07:54:19;;;;;;;8.73;5.82;;;;;;;-146.27;71.24;80592.72;5047696;28;20427;-73
2023/06/24 07:56:45;;;;;;;9.13;6.18;;;;;;;-146.27;71.17;80610.81;5048409;28;20025;-72
2023/06/24 07:59:10;;;;;;;10.75;5.50;;;;;;;-146.27;71.23;80538.53;5045333;28;20075;-72
2023/06/24 08:01:35;;;;;;;10.20;5.85;;;;;;;-146.27;70.07;80542.53;5043124;28;20048;-73
2023/06/24 08:04:01;;;;;;;10.50;5.85;;;;;;;-146.27;69.16;80558.59;5045719;28;20040;-73
2023/06/24 08:06:27;;;;;;;8.98;5.60;;;;;;;-146.27;69.85;80510.41;5038655;28;20037;-74
2023/06/24 08:08:59;;;;;;;9.60;6.22;;;;;;;-146.27;70.26;80528.47;5043671;28;20025;-74
2023/06/24 08:11:25;;;;;;;9.63;6.40;;;;;;;-146.27;69.63;80506.41;5046022;28;20518;-72
2023/06/24 08:13:51;;;;;;;10.32;5.20;;;;;;;-146.27;69.15;80468.25;5041549;28;20033;-71
2023/06/24 08:16:20;;;;;;;11.98;5.30;;;;;;;-146.27;69.43;80432.09;5025592;28;20021;-72
2023/06/24 08:18:46;;;;;;;10.60;5.82;;;;;;;-146.27;68.66;80440.13;5018615;28;20155;-72
2023/06/24 08:21:11;;;;;;;12.95;6.03;;;;;;;-146.27;67.99;80444.16;5036525;28;20021;-71
2023/06/24 08:23:37;;;;;;;10.55;5.22;;;;;;;-146.27;68.11;80371.88;5034834;28;20558;-71
2023/06/24 08:26:02;;;;;;;12.13;6.38;;;;;;;-146.27;67.35;80357.81;5034927;28;20738;-71
2023/06/24 08:28:28;;;;;;;12.70;5.45;;;;;;;-146.27;67.88;80299.59;5038044;28;20030;-72
2023/06/24 08:30:53;;;;;;;11.60;6.10;;;;;;;-146.27;67.62;80331.72;5047698;28;20135;-72
2023/06/24 08:33:18;;;;;;;8.80;5.70;;;;;;;-146.27;67.40;80311.63;5041901;28;20029;-73
2023/06/24 08:35:44;;;;;;;12.25;6.25;;;;;;;-146.27;67.25;80311.63;5046288;28;20390;-73
2023/06/24 08:38:09;;;;;;;7.32;4.80;;;;;;;-146.27;67.53;80255.41;5047888;28;20029;-71
2023/06/24 08:40:36;;;;;;;11.95;5.45;;;;;;;-146.27;67.29;80161.06;5047593;28;20040;-71
2023/06/24 08:43:02;;;;;;;9.95;5.60;;;;;;;-146.27;66.34;80177.13;5048233;28;20036;-73
2023/06/24 08:45:27;;;;;;;8.25;4.85;;;;;;;-146.27;66.41;80112.88;5047766;28;20403;-72
2023/06/24 08:47:55;;;;;;;9.65;5.70;;;;;;;-146.27;64.94;80151.03;5031255;28;20519;-71
2023/06/24 08:50:24;;;;;;;9.60;5.75;;;;;;;-146.27;65.40;80070.72;5028295;28;20114;-72
2023/06/24 08:52:52;;;;;;;8.43;5.97;;;;;;;-146.27;64.37;80114.88;5027405;28;20484;-71
2023/06/24 08:55:22;;;;;;;10.23;6.18;;;;;;;-146.27;63.80;80094.81;5041253;28;20017;-73
2023/06/24 08:57:48;;;;;;;11.48;6.78;;;;;;;-146.27;63.85;80159.06;5047342;28;20033;-72
2023/06/24 09:00:14;;;;;;;10.15;5.90;;;;;;;-146.27;63.94;80068.69;5049318;28;20082;-71
2023/06/24 09:02:40;;;;;;;7.88;5.15;;;;;;;-146.27;63.95;80016.50;5035680;28;20029;-72
2023/06/24 09:05:06;;;;;;;8.27;4.97;;;;;;;-146.27;63.78;79930.19;5030947;28;20036;-72
2023/06/24 09:07:31;;;;;;;8.07;5.80;;;;;;;-146.27;62.22;79918.13;5030012;28;20111;-71
2023/06/24 09:09:57;;;;;;;9.68;4.95;;;;;;;-146.27;62.26;79894.03;5049522;28;20017;-72
2023/06/24 09:12:24;;;;;;;11.18;6.57;;;;;;;-146.27;61.87;79940.22;5047013;28;20037;-72
2023/06/24 09:14:50;;;;;;;12.73;5.55;;;;;;;-146.27;62.40;79904.09;5040133;28;20021;-70
2023/06/24 09:17:17;;;;;;;10.52;7.05;;;;;;;-146.27;62.69;79871.97;5044176;28;20417;-71
2023/06/24 09:19:42;;;;;;;11.25;6.25;;;;;;;-146.27;61.07;79859.91;5038252;28;20071;-72
2023/06/24 09:22:17;;;;;;;13.43;5.53;;;;;;;-146.27;61.10;79884.00;5028182;28;20523;-72
2023/06/24 09:24:46;;;;;;;14.18;6.15;;;;;;;-146.27;61.09;79809.72;5036222;28;20021;-72
2023/06/24 09:27:13;;;;;;;9.93;5.88;;;;;;;-146.27;61.32;79753.53;5029921;28;20056;-72
2023/06/24 09:29:40;;;;;;;7.78;5.63;;;;;;;-146.27;61.94;79719.38;5033214;28;20423;-73
2023/06/24 09:32:06;;;;;;;9.02;5.65;;;;;;;-146.27;61.57;79613.00;5041310;28;20060;-73
2023/06/24 09:34:32;;;;;;;13.98;6.90;;;;;;;-146.27;59.20;79723.41;5015266;28;20724;-73
2023/06/24 09:36:58;;;;;;;6.50;4.90;;;;;;;-146.27;59.60;79723.41;5045887;28;20036;-73
2023/06/24 09:39:28;;;;;;;11.52;6.32;;;;;;;-146.27;59.93;79753.53;5025191;28;20040;-72
2023/06/24 09:41:58;;;;;;;6.55;5.25;;;;;;;-146.27;59.08;79679.25;5035451;28;20037;-71
2023/06/24 09:44:25;;;;;;;10.98;5.20;;;;;;;-146.27;57.43;79667.19;5047985;28;20424;-71
2023/06/24 09:46:52;;;;;;;8.35;5.18;;;;;;;-146.27;57.10;79641.09;5026599;28;20021;-72
2023/06/24 09:49:17;;;;;;;11.15;5.47;;;;;;;-146.27;57.41;79611.00;5047726;28;20031;-72
2023/06/24 09:51:47;;;;;;;6.78;4.88;;;;;;;-146.27;57.29;79566.81;5032936;28;20044;-69
2023/06/24 09:54:14;;;;;;;8.38;4.82;;;;;;;-146.27;57.55;79486.53;5034371;28;20059;-71
2023/06/24 09:56:44;;;;;;;14.15;6.75;;;;;;;-146.27;56.51;79548.75;5052472;28;20098;-69
2023/06/24 09:59:11;;;;;;;8.38;4.82;;;;;;;-146.27;57.30;79408.25;5033843;28;20045;-73
2023/06/24 10:01:41;;;;;;;11.23;5.47;;;;;;;-146.27;56.51;79396.19;5031383;28;20033;-73
2023/06/24 10:04:07;;;;;;;12.25;5.53;;;;;;;-146.27;56.85;79295.84;5026393;28;20021;-72
2023/06/24 10:06:34;;;;;;;7.53;5.35;;;;;;;-146.27;56.12;79440.34;5043675;28;20040;-72
2023/06/24 10:09:01;;;;;;;11.10;5.63;;;;;;;-146.27;55.44;79360.06;5044569;28;20108;-72
2023/06/24 10:11:26;;;;;;;10.88;4.63;;;;;;;-146.27;55.39;79319.91;5036674;28;20527;-73
2023/06/24 10:13:55;;;;;;;10.13;4.72;;;;;;;-146.27;55.58;79237.63;5050214;28;20033;-73
2023/06/24 10:16:23;;;;;;;9.88;4.63;;;;;;;-146.27;56.29;79231.59;5038455;28;20037;-74
2023/06/24 10:18:52;;;;;;;9.73;5.60;;;;;;;-146.27;54.16;79249.66;5036942;28;20055;-71
2023/06/24 10:21:17;;;;;;;8.05;4.47;;;;;;;-146.27;54.64;79199.50;5051189;28;20029;-72
2023/06/24 10:23:55;;;;;;;7.57;5.55;;;;;;;-146.27;55.25;79161.34;5030520;28;20025;-75
2023/06/24 10:26:35;;;;;;;8.55;4.95;;;;;;;-146.27;53.45;79054.97;5048342;28;20028;-73
2023/06/24 10:29:06;;;;;;;8.80;4.40;;;;;;;-146.27;53.10;79097.13;5051831;28;20025;-74
2023/06/24 10:31:41;;;;;;;12.02;4.75;;;;;;;-146.27;53.29;78982.72;5050858;28;20056;-73
2023/06/24 10:34:18;;;;;;;9.05;4.97;;;;;;;-146.27;53.26;78946.59;5050208;28;20036;-73
2023/06/24 10:37:05;;;;;;;10.88;6.15;;;;;;;-146.27;53.88;78896.41;5040823;28;20037;-72
2023/06/24 10:39:48;;;;;;;12.55;5.55;;;;;;;-146.27;51.86;78928.53;5051208;28;20025;-73
2023/06/24 10:42:30;;;;;;;6.55;4.30;;;;;;;-146.27;53.29;78924.50;5050672;28;20035;-73
2023/06/24 10:45:00;;;;;;;11.48;5.28;;;;;;;-146.27;54.40;78874.34;5036863;28;20483;-73
2023/06/24 10:47:27;;;;;;;9.80;5.05;;;;;;;-146.27;54.33;78792.03;5043329;28;20022;-74
2023/06/24 10:49:53;;;;;;;13.45;5.60;;;;;;;-146.27;53.56;78798.06;5032030;28;20480;-73
2023/06/24 10:52:23;;;;;;;10.32;4.80;;;;;;;-146.27;54.14;78699.72;5050643;28;20116;-74
2023/06/24 10:54:51;;;;;;;10.10;4.57;;;;;;;-146.27;52.84;78645.53;5031819;28;20049;-73
2023/06/24 10:57:24;;;;;;;12.57;5.28;;;;;;;-146.27;52.63;78701.72;5051376;28;20033;-74
2023/06/24 10:59:56;;;;;;;8.43;4.90;;;;;;;-146.27;52.40;78824.16;5050856;28;20041;-72
2023/06/24 11:02:27;;;;;;;7.45;4.75;;;;;;;-146.27;53.35;78838.22;5050153;28;20024;-73
2023/06/24 11:04:54;;;;;;;9.07;4.28;;;;;;;-146.27;53.29;78874.34;5049823;28;20025;-73
2023/06/24 11:07:24;;;;;;;8.80;5.35;;;;;;;-146.27;53.43;78950.59;5050922;28;20711;-74
2023/06/24 11:09:54;;;;;;;13.15;4.63;;;;;;;-146.27;54.26;78898.41;5031347;28;20052;-73
2023/06/24 11:12:41;;;;;;;7.75;3.75;;;;;;;-146.27;54.98;78782.00;5036096;28;20040;-74
2023/06/24 11:15:11;;;;;;;8.48;5.45;;;;;;;-146.27;52.14;78832.19;5048710;28;21667;-75